Portada
METAR-TAF:

METAR-TAF

Aeroports :

Dibrugarh, Índia

latitud: 27-29N, longitud: 095-01E, altitud: 110 m

Observació

L'informe es va fer fa 3 hores i 37 minuts, a les 12:00 UTC
Vent 4 kt del Est
Temperatura 18°C
Humitat 88%
Pressió 1015 hPa
Visibilitat: 3000 m
Núvols disperses a una alçada de 2000 ft
Cel ennuvolat a una alçada de 10000 ft
boirina

METAR: VEMN 201200Z 08004KT 3000 BR SCT020 BKN100 18/16 Q1015 NOSIG

Hora: 21:07 (15:37 UTC)

Pronòstic

L'informe es va fer fa 4 hores i 37 minuts, a les 11:00 UTC
Pronòstic vàlid del 20 a les 12 UTC al 20 a les 21 UTC
Vent 5 kt del Nord-Est
Visibilitat: 3000 m
Núvols disperses a una alçada de 2000 ft
Cel ennuvolat a una alçada de 10000 ft
calitja
Evolucionant progressivament
l' 20 a les 18 UTC al 20 a les 21 UTC
Visibilitat: 2000 m
boirina

TAF: VEMN 201100Z 2012/2021 05005KT 3000 HZ SCT020 BKN100 BECMG 2018/2021 2000 BR

Observacions i pronòstics meteorològics de més de 4000 aeroports (METAR i TAF).

Les estacions disponibles són els punts grocs i vermells al mapa.

Posi el ratolí al punt desitjat per veure el nom de l'estació.

Feu clic per veure les observacions i els pronòstics meteorològics.

Per canviar el mapa: feu clic els botons verds amb una creu de color negre per apropar; al botó verd amb un guió per allunyar la imatge; o en les fletxes verdes per a mapes adjacents.


METAR-TAF: